Time;durP1;ratioP1;P1;durP2;ratioP2;P2;SDS_P1;SDS_P2;PMS_P1;PMS_P2;Temp;Humidity;BMP_temperature;BMP_pressure;BME280_temperature;BME280_humidity;BME280_pressure;Samples;Min_cycle;Max_cycle;Signal;HPM_P1;HPM_P2
2021/12/09 00:01:21;;;;;;;16.77;9.63;;;1.30;99.90;;;;;;5011475;28;20464;-37
2021/12/09 00:03:51;;;;;;;19.30;9.20;;;1.30;99.90;;;;;;4991664;28;20078;-37
2021/12/09 00:06:22;;;;;;;15.03;9.87;;;1.30;99.90;;;;;;4976720;28;20159;-37
2021/12/09 00:08:48;;;;;;;18.60;9.23;;;1.30;99.90;;;;;;4985224;28;20501;-37
2021/12/09 00:11:14;;;;;;;20.07;8.70;;;1.30;99.90;;;;;;4988473;28;20038;-34
2021/12/09 00:13:39;;;;;;;15.50;8.43;;;1.30;99.90;;;;;;5001648;28;20080;-35
2021/12/09 00:16:05;;;;;;;15.67;8.60;;;1.30;99.90;;;;;;5009163;28;20634;-36
2021/12/09 00:18:31;;;;;;;16.90;8.93;;;1.30;99.90;;;;;;4995201;28;20482;-36
2021/12/09 00:20:57;;;;;;;16.77;8.73;;;1.30;99.90;;;;;;5002552;28;20523;-37
2021/12/09 00:23:22;;;;;;;18.97;8.73;;;1.30;99.90;;;;;;5002040;28;20516;-36
2021/12/09 00:25:48;;;;;;;15.10;8.13;;;1.30;99.90;;;;;;5004278;28;20049;-36
2021/12/09 00:28:14;;;;;;;15.73;8.60;;;1.20;99.90;;;;;;4986380;28;20045;-36
2021/12/09 00:30:39;;;;;;;19.10;8.73;;;1.30;99.90;;;;;;5019058;28;20540;-37
2021/12/09 00:33:06;;;;;;;19.27;8.87;;;1.20;99.90;;;;;;5003660;28;20792;-37
2021/12/09 00:35:43;;;;;;;19.40;8.47;;;1.20;99.90;;;;;;5002654;28;20054;-37
2021/12/09 00:38:13;;;;;;;15.20;8.40;;;1.20;99.90;;;;;;4987576;28;20576;-37
2021/12/09 00:40:39;;;;;;;18.50;7.57;;;1.20;99.90;;;;;;5004042;28;20588;-37
2021/12/09 00:43:04;;;;;;;17.07;8.87;;;1.20;99.90;;;;;;5003507;28;20147;-37
2021/12/09 00:45:31;;;;;;;12.33;8.10;;;1.20;99.90;;;;;;5004054;28;20045;-35
2021/12/09 00:47:57;;;;;;;15.13;7.57;;;1.20;99.90;;;;;;4989154;28;20073;-36
2021/12/09 00:50:23;;;;;;;13.63;7.93;;;1.10;99.90;;;;;;5004145;28;20041;-37
2021/12/09 00:52:49;;;;;;;14.40;8.10;;;1.10;99.90;;;;;;5005124;28;20038;-36
2021/12/09 00:55:16;;;;;;;15.93;7.90;;;1.10;99.90;;;;;;5004862;28;20132;-36
2021/12/09 00:57:43;;;;;;;13.07;7.53;;;1.10;99.90;;;;;;4995984;28;20129;-33
2021/12/09 01:00:14;;;;;;;15.83;8.30;;;1.00;99.90;;;;;;5010556;28;20045;-37
2021/12/09 01:02:41;;;;;;;15.10;8.27;;;1.00;99.90;;;;;;5011992;28;20107;-37
2021/12/09 01:05:08;;;;;;;15.27;8.00;;;1.00;99.90;;;;;;5009537;28;20061;-37
2021/12/09 01:07:37;;;;;;;15.33;8.53;;;0.90;99.90;;;;;;4992500;28;20394;-36
2021/12/09 01:10:06;;;;;;;19.70;8.93;;;0.90;99.90;;;;;;5007226;28;20053;-38
2021/12/09 01:12:32;;;;;;;12.87;8.03;;;0.90;99.90;;;;;;5002032;28;20049;-36
2021/12/09 01:14:57;;;;;;;13.53;8.13;;;0.90;99.90;;;;;;4989767;28;20050;-35
2021/12/09 01:17:23;;;;;;;18.77;8.77;;;0.80;99.90;;;;;;4972716;28;20050;-37
2021/12/09 01:19:50;;;;;;;13.77;8.20;;;0.80;99.90;;;;;;4987779;28;20116;-36
2021/12/09 01:22:16;;;;;;;15.73;8.10;;;0.80;99.90;;;;;;4984341;28;20053;-36
2021/12/09 01:24:41;;;;;;;15.40;8.70;;;0.90;99.90;;;;;;4991564;28;20397;-37
2021/12/09 01:27:08;;;;;;;19.93;9.57;;;0.70;99.90;;;;;;4974888;28;20038;-36
2021/12/09 01:29:40;;;;;;;13.67;8.77;;;0.70;99.90;;;;;;4987325;28;20050;-36
2021/12/09 01:32:08;;;;;;;22.40;10.30;;;0.70;99.90;;;;;;4987014;28;20411;-37
2021/12/09 01:34:36;;;;;;;24.60;10.60;;;0.70;99.90;;;;;;4988365;28;20058;-33
2021/12/09 01:37:03;;;;;;;22.00;10.63;;;0.70;99.90;;;;;;4975856;28;20049;-36
2021/12/09 01:39:31;;;;;;;20.77;11.20;;;0.70;99.90;;;;;;4986819;28;20050;-34
2021/12/09 01:41:58;;;;;;;22.20;12.03;;;0.70;99.90;;;;;;4987387;28;20050;-37
2021/12/09 01:44:24;;;;;;;19.93;11.07;;;0.70;99.90;;;;;;4986327;28;20049;-36
2021/12/09 01:46:50;;;;;;;19.57;11.20;;;0.70;99.90;;;;;;4973134;28;20575;-37
2021/12/09 01:49:17;;;;;;;24.50;12.87;;;0.80;99.90;;;;;;4984819;28;20046;-36
2021/12/09 01:51:45;;;;;;;22.43;13.27;;;0.80;99.90;;;;;;4987480;28;20050;-36
2021/12/09 01:54:11;;;;;;;26.27;12.93;;;0.80;99.90;;;;;;4986636;28;20073;-35
2021/12/09 01:56:37;;;;;;;22.43;12.00;;;0.80;99.90;;;;;;4972913;28;20049;-36
2021/12/09 01:59:05;;;;;;;18.47;10.77;;;0.80;99.90;;;;;;4983872;28;20046;-35
2021/12/09 02:01:33;;;;;;;21.57;11.43;;;0.90;99.90;;;;;;5019701;28;20046;-38
2021/12/09 02:04:00;;;;;;;26.93;13.43;;;0.90;99.90;;;;;;4985710;28;20053;-37
2021/12/09 02:06:27;;;;;;;22.37;12.53;;;0.80;99.90;;;;;;4972996;28;20536;-36
2021/12/09 02:08:54;;;;;;;23.53;12.33;;;0.80;99.90;;;;;;4983048;28;20527;-35
2021/12/09 02:11:20;;;;;;;22.20;12.13;;;0.80;99.90;;;;;;4986175;28;20053;-36
2021/12/09 02:13:50;;;;;;;25.20;12.87;;;0.90;99.90;;;;;;5001692;28;20052;-35
2021/12/09 02:16:17;;;;;;;23.17;13.10;;;0.90;99.90;;;;;;4995777;28;20524;-35
2021/12/09 02:18:43;;;;;;;22.60;11.80;;;0.90;99.90;;;;;;5001524;28;20054;-36
2021/12/09 02:21:14;;;;;;;21.60;12.33;;;0.80;99.90;;;;;;5005668;28;20053;-36
2021/12/09 02:23:49;;;;;;;22.67;12.52;;;0.80;99.90;;;;;;5008154;28;20058;-35
2021/12/09 02:26:16;;;;;;;26.27;12.93;;;0.80;99.90;;;;;;4996756;28;20046;-35
2021/12/09 02:28:44;;;;;;;22.83;13.13;;;0.90;99.90;;;;;;4990592;28;20038;-36
2021/12/09 02:31:10;;;;;;;20.60;12.47;;;0.80;99.90;;;;;;4985250;28;20529;-36
2021/12/09 02:33:36;;;;;;;26.10;12.50;;;0.90;99.90;;;;;;4984114;28;20595;-35
2021/12/09 02:36:02;;;;;;;30.80;16.03;;;0.80;99.90;;;;;;4988926;28;20050;-36
2021/12/09 02:38:28;;;;;;;31.50;15.57;;;0.70;99.90;;;;;;4971869;28;20046;-36
2021/12/09 02:40:56;;;;;;;24.73;14.10;;;0.70;99.90;;;;;;4985563;28;20060;-37
2021/12/09 02:43:29;;;;;;;25.60;14.30;;;0.70;99.90;;;;;;4985688;28;20081;-37
2021/12/09 02:45:57;;;;;;;30.97;15.00;;;0.70;99.90;;;;;;4985694;28;20042;-36
2021/12/09 02:48:24;;;;;;;28.43;15.20;;;0.70;99.90;;;;;;4969662;28;20046;-36
2021/12/09 02:50:50;;;;;;;19.57;13.47;;;0.70;99.90;;;;;;4985913;28;20085;-37
2021/12/09 02:53:17;;;;;;;20.23;12.63;;;0.70;99.90;;;;;;4984373;28;20112;-36
2021/12/09 02:55:44;;;;;;;23.10;12.63;;;0.70;99.90;;;;;;4985975;28;20437;-36
2021/12/09 02:58:10;;;;;;;21.47;12.50;;;0.70;99.90;;;;;;4970928;28;20052;-36
2021/12/09 03:00:53;;;;;;;24.60;13.00;;;0.70;99.90;;;;;;4987605;28;20540;-36
2021/12/09 03:03:19;;;;;;;22.83;12.53;;;0.70;99.90;;;;;;4985178;28;20054;-36
2021/12/09 03:05:46;;;;;;;22.20;12.20;;;0.60;99.90;;;;;;4985295;28;20062;-35
2021/12/09 03:08:19;;;;;;;20.40;11.93;;;0.60;99.90;;;;;;5001054;28;20042;-36
2021/12/09 03:10:46;;;;;;;27.10;12.93;;;0.60;99.90;;;;;;4986441;28;20493;-35
2021/12/09 03:13:12;;;;;;;18.17;12.37;;;0.60;99.90;;;;;;4996822;28;20042;-37
2021/12/09 03:15:38;;;;;;;18.83;11.47;;;0.50;99.90;;;;;;5004965;28;20448;-37
2021/12/09 03:18:04;;;;;;;20.13;12.13;;;0.50;99.90;;;;;;5007490;28;20077;-35
2021/12/09 03:20:29;;;;;;;18.20;12.07;;;0.50;99.90;;;;;;5004891;28;20520;-36
2021/12/09 03:22:55;;;;;;;20.07;11.67;;;0.40;99.90;;;;;;5004246;28;20769;-36
2021/12/09 03:25:21;;;;;;;20.90;11.80;;;0.40;99.90;;;;;;5002906;28;20053;-37
2021/12/09 03:27:48;;;;;;;19.77;11.80;;;0.40;99.90;;;;;;4988613;28;20188;-36
2021/12/09 03:30:18;;;;;;;21.83;13.00;;;0.40;99.90;;;;;;5004482;28;20569;-36
2021/12/09 03:32:43;;;;;;;25.63;13.37;;;0.30;99.90;;;;;;5002515;28;20054;-36
2021/12/09 03:35:12;;;;;;;22.67;12.43;;;0.30;99.90;;;;;;5004526;28;20057;-34
2021/12/09 03:37:39;;;;;;;28.70;12.40;;;0.30;99.90;;;;;;4988864;28;20064;-36
2021/12/09 03:40:06;;;;;;;23.10;12.13;;;0.30;99.90;;;;;;5004464;28;20046;-36
2021/12/09 03:42:33;;;;;;;20.40;11.17;;;0.30;99.90;;;;;;5003787;28;20133;-37
2021/12/09 03:45:00;;;;;;;20.70;11.60;;;0.20;99.90;;;;;;5004313;28;20505;-36
2021/12/09 03:47:29;;;;;;;22.33;12.43;;;0.20;99.90;;;;;;4987034;28;20053;-37
2021/12/09 03:49:55;;;;;;;22.93;11.73;;;0.20;99.90;;;;;;5003881;28;20274;-36
2021/12/09 03:52:22;;;;;;;20.77;11.57;;;0.10;99.90;;;;;;5015906;28;20104;-37
2021/12/09 03:54:48;;;;;;;21.07;11.50;;;0.10;99.90;;;;;;5003238;28;20588;-37
2021/12/09 03:57:14;;;;;;;21.10;12.47;;;0.10;99.90;;;;;;4988684;28;20383;-36
2021/12/09 03:59:41;;;;;;;22.17;12.27;;;0.10;99.90;;;;;;5001624;28;20103;-37
2021/12/09 04:02:07;;;;;;;20.67;12.37;;;0.10;99.90;;;;;;5003634;28;20045;-36
2021/12/09 04:04:33;;;;;;;21.47;11.93;;;0.10;99.90;;;;;;5002571;28;20356;-36
2021/12/09 04:07:00;;;;;;;23.87;12.87;;;0.10;99.90;;;;;;4988807;28;20416;-36
2021/12/09 04:09:26;;;;;;;22.83;12.90;;;0.00;99.90;;;;;;5003483;28;20878;-36
2021/12/09 04:11:52;;;;;;;17.17;11.90;;;0.00;99.90;;;;;;5004397;28;20073;-37
2021/12/09 04:14:19;;;;;;;23.27;12.00;;;0.00;99.90;;;;;;5004346;28;20057;-36
2021/12/09 04:16:46;;;;;;;18.90;12.73;;;0.00;99.90;;;;;;4995012;28;20565;-37
2021/12/09 04:19:12;;;;;;;22.50;12.63;;;0.00;99.90;;;;;;5003233;28;20585;-37
2021/12/09 04:21:39;;;;;;;25.43;14.23;;;0.00;99.90;;;;;;5018723;28;20046;-36
2021/12/09 04:24:08;;;;;;;27.23;15.23;;;-0.10;99.90;;;;;;5016238;28;20069;-35
2021/12/09 04:26:39;;;;;;;25.57;14.43;;;-0.10;99.90;;;;;;4971322;28;20031;-36
2021/12/09 04:29:07;;;;;;;25.27;13.07;;;-0.10;99.90;;;;;;4983178;28;20050;-36
2021/12/09 04:31:33;;;;;;;23.50;13.73;;;0.00;99.90;;;;;;4992190;28;20042;-36
2021/12/09 04:33:59;;;;;;;22.33;12.97;;;-0.10;99.90;;;;;;4988119;28;20113;-36
2021/12/09 04:36:26;;;;;;;22.13;12.93;;;-0.10;99.90;;;;;;4984332;28;20555;-37
2021/12/09 04:38:53;;;;;;;23.47;12.50;;;-0.10;99.90;;;;;;4985382;28;20065;-37
2021/12/09 04:41:19;;;;;;;20.67;12.87;;;-0.10;99.90;;;;;;4988309;28;20050;-36
2021/12/09 04:43:45;;;;;;;18.23;12.93;;;-0.10;99.90;;;;;;4987241;28;20038;-35
2021/12/09 04:46:12;;;;;;;23.97;13.83;;;-0.10;99.90;;;;;;4979147;28;20053;-36
2021/12/09 04:48:38;;;;;;;23.37;12.80;;;0.10;99.90;;;;;;4982006;28;20503;-36
2021/12/09 04:51:05;;;;;;;22.03;13.03;;;-0.10;99.90;;;;;;4986816;28;20050;-36
2021/12/09 04:53:32;;;;;;;25.20;13.33;;;-0.20;99.90;;;;;;4989046;28;20108;-36
2021/12/09 04:55:58;;;;;;;24.53;12.90;;;-0.20;99.90;;;;;;4987660;28;20125;-35
2021/12/09 04:58:25;;;;;;;25.87;13.67;;;-0.20;99.90;;;;;;5003883;28;20046;-37
2021/12/09 05:00:53;;;;;;;19.73;12.53;;;-0.20;99.90;;;;;;5023971;28;20046;-36
2021/12/09 05:03:19;;;;;;;23.70;13.03;;;-0.20;99.90;;;;;;4987122;28;20046;-36
2021/12/09 05:05:50;;;;;;;26.97;13.47;;;-0.20;99.90;;;;;;4988122;28;20572;-37
2021/12/09 05:08:19;;;;;;;22.07;12.10;;;-0.20;99.90;;;;;;4972444;28;20129;-38
2021/12/09 05:11:12;;;;;;;28.87;13.83;;;-0.20;99.90;;;;;;4989049;28;20065;-33
2021/12/09 05:13:39;;;;;;;21.00;12.47;;;-0.20;99.90;;;;;;4989353;28;20042;-35
2021/12/09 05:16:08;;;;;;;19.57;12.50;;;-0.20;99.90;;;;;;4986429;28;20125;-37
2021/12/09 05:18:36;;;;;;;25.27;13.13;;;-0.20;99.90;;;;;;4980696;28;20054;-36
2021/12/09 05:21:04;;;;;;;23.20;13.13;;;-0.30;99.90;;;;;;4987664;28;20046;-37
2021/12/09 05:23:30;;;;;;;23.20;12.50;;;-0.30;99.90;;;;;;4987483;28;20061;-37
2021/12/09 05:25:56;;;;;;;23.17;12.97;;;-0.30;99.90;;;;;;5018717;28;21202;-37
2021/12/09 05:28:30;;;;;;;22.83;12.77;;;-0.30;99.90;;;;;;4974501;28;20189;-35
2021/12/09 05:33:41;;;;;;;22.50;13.23;;;-0.40;99.90;;;;;;4989182;28;20089;-36
2021/12/09 05:36:07;;;;;;;27.83;13.90;;;-0.30;99.90;;;;;;4986293;28;20040;-36
2021/12/09 05:38:33;;;;;;;22.27;13.27;;;-0.40;99.90;;;;;;4983130;28;20050;-35
2021/12/09 05:40:59;;;;;;;23.30;13.07;;;-0.30;99.90;;;;;;4986058;28;20061;-35
2021/12/09 05:43:26;;;;;;;20.77;12.80;;;-0.30;99.90;;;;;;4989385;28;20589;-35
2021/12/09 05:45:52;;;;;;;23.50;13.43;;;-0.30;99.90;;;;;;4986918;28;20084;-35
2021/12/09 05:48:18;;;;;;;24.97;13.83;;;-0.40;99.90;;;;;;4976214;28;20077;-36
2021/12/09 05:50:45;;;;;;;21.50;13.17;;;-0.40;99.90;;;;;;4986967;28;20042;-36
2021/12/09 05:53:11;;;;;;;20.43;12.70;;;-0.40;99.90;;;;;;4987998;28;20085;-36
2021/12/09 05:55:43;;;;;;;23.80;14.20;;;-0.40;99.90;;;;;;5018152;28;20426;-36
2021/12/09 05:58:19;;;;;;;28.60;14.77;;;-0.40;99.90;;;;;;4971958;28;20050;-35
2021/12/09 06:00:46;;;;;;;25.40;14.70;;;-0.40;99.90;;;;;;4990932;28;20041;-36
2021/12/09 06:03:13;;;;;;;27.57;15.20;;;-0.40;99.90;;;;;;4985438;28;20481;-35
2021/12/09 06:05:39;;;;;;;26.10;14.57;;;-0.40;99.90;;;;;;5026487;28;20550;-36
2021/12/09 06:08:05;;;;;;;32.00;16.13;;;-0.40;99.90;;;;;;4971929;28;20140;-36
2021/12/09 06:10:34;;;;;;;25.63;14.80;;;-0.40;99.90;;;;;;4986964;28;20065;-34
2021/12/09 06:13:00;;;;;;;32.47;16.17;;;-0.30;99.90;;;;;;4992361;28;20409;-36
2021/12/09 06:15:26;;;;;;;28.10;16.07;;;-0.30;99.90;;;;;;4985932;28;20053;-37
2021/12/09 06:17:52;;;;;;;28.17;15.67;;;-0.30;99.90;;;;;;5002733;28;20039;-36
2021/12/09 06:20:17;;;;;;;33.40;15.63;;;-0.30;99.90;;;;;;4986175;28;20100;-36
2021/12/09 06:22:43;;;;;;;28.60;16.10;;;-0.30;99.90;;;;;;4989593;28;20536;-36
2021/12/09 06:25:16;;;;;;;35.20;16.77;;;-0.30;99.90;;;;;;4989663;28;20046;-36
2021/12/09 06:27:42;;;;;;;34.43;16.77;;;-0.30;99.90;;;;;;4972453;28;20379;-36
2021/12/09 06:30:08;;;;;;;34.83;17.50;;;-0.20;99.90;;;;;;4988452;28;20394;-37
2021/12/09 06:32:33;;;;;;;32.53;16.73;;;-0.20;99.90;;;;;;4985394;28;20046;-36
2021/12/09 06:34:59;;;;;;;28.07;16.30;;;-0.20;99.90;;;;;;4986625;28;20123;-36
2021/12/09 06:37:25;;;;;;;34.03;16.77;;;-0.20;99.90;;;;;;4975610;28;20161;-35
2021/12/09 06:39:50;;;;;;;33.20;16.53;;;-0.20;99.90;;;;;;4987601;28;20578;-36
2021/12/09 06:42:17;;;;;;;27.60;16.10;;;-0.20;99.90;;;;;;4986857;28;20046;-36
2021/12/09 06:44:44;;;;;;;24.77;15.40;;;-0.10;99.90;;;;;;4988254;28;20546;-36
2021/12/09 06:47:10;;;;;;;25.00;15.57;;;-0.10;99.90;;;;;;4970989;28;20054;-33
2021/12/09 06:49:35;;;;;;;21.73;13.80;;;-0.20;99.90;;;;;;4986124;28;20034;-35
2021/12/09 06:52:02;;;;;;;26.33;13.10;;;-0.20;99.90;;;;;;4985438;28;20703;-35
2021/12/09 06:54:27;;;;;;;21.30;13.47;;;-0.20;99.90;;;;;;4989659;28;20657;-36
2021/12/09 06:56:53;;;;;;;25.63;13.27;;;-0.20;99.90;;;;;;4971583;28;20051;-37
2021/12/09 06:59:19;;;;;;;22.60;13.57;;;-0.30;99.90;;;;;;4984477;28;20065;-34
2021/12/09 07:01:44;;;;;;;28.23;13.07;;;-0.40;99.90;;;;;;4988139;28;20801;-36
2021/12/09 07:04:10;;;;;;;22.30;12.87;;;-0.40;99.90;;;;;;4984117;28;20076;-36
2021/12/09 07:06:37;;;;;;;25.90;12.77;;;-0.40;99.90;;;;;;5004202;28;20537;-36
2021/12/09 07:09:04;;;;;;;23.87;12.97;;;-0.50;99.90;;;;;;4985890;28;20549;-36
2021/12/09 07:11:31;;;;;;;22.57;12.77;;;-0.50;99.90;;;;;;4987974;28;20463;-36
2021/12/09 07:13:58;;;;;;;20.37;13.17;;;-0.50;99.90;;;;;;5024035;28;20046;-36
2021/12/09 07:16:23;;;;;;;18.53;12.67;;;-0.60;99.90;;;;;;4972700;28;20125;-35
2021/12/09 07:18:50;;;;;;;21.73;12.50;;;-0.60;99.90;;;;;;4997722;28;20065;-37
2021/12/09 07:21:16;;;;;;;22.73;12.83;;;-0.60;99.90;;;;;;4983959;28;20048;-37
2021/12/09 07:23:42;;;;;;;21.67;12.87;;;-0.60;99.90;;;;;;4983407;28;20054;-36
2021/12/09 07:26:08;;;;;;;27.27;12.80;;;-0.60;99.90;;;;;;4978167;28;20042;-37
2021/12/09 07:28:33;;;;;;;21.67;12.63;;;-0.60;99.90;;;;;;4999589;28;20064;-37
2021/12/09 07:30:59;;;;;;;26.23;13.77;;;-0.70;99.90;;;;;;5002693;28;20046;-36
2021/12/09 07:33:25;;;;;;;22.80;13.47;;;-0.70;99.90;;;;;;4993360;28;20050;-37
2021/12/09 07:35:51;;;;;;;25.53;14.47;;;-0.70;99.90;;;;;;4986167;28;20046;-36
2021/12/09 07:38:16;;;;;;;27.77;13.83;;;-0.70;99.90;;;;;;4970404;28;20061;-36
2021/12/09 07:40:42;;;;;;;25.70;12.80;;;-0.70;99.90;;;;;;5018856;28;20096;-37
2021/12/09 07:43:08;;;;;;;25.83;13.93;;;-0.70;99.90;;;;;;4986456;28;20058;-36
2021/12/09 07:45:34;;;;;;;22.07;13.73;;;-0.80;99.90;;;;;;4999013;28;20095;-36
2021/12/09 07:47:59;;;;;;;26.73;13.73;;;-0.80;99.90;;;;;;4970114;28;20102;-35
2021/12/09 07:50:31;;;;;;;24.70;13.00;;;-0.80;99.90;;;;;;4985510;28;20047;-36
2021/12/09 07:52:57;;;;;;;25.77;13.13;;;-0.80;99.90;;;;;;4985618;28;20041;-36
2021/12/09 07:55:25;;;;;;;21.83;13.00;;;-0.80;99.90;;;;;;4984992;28;20049;-36
2021/12/09 07:57:50;;;;;;;25.87;13.80;;;-0.80;99.90;;;;;;5001191;28;20050;-37
2021/12/09 08:00:20;;;;;;;24.80;12.97;;;-0.80;99.90;;;;;;4988707;28;20501;-37
2021/12/09 08:02:48;;;;;;;24.87;13.43;;;-0.80;99.90;;;;;;4985035;28;20050;-37
2021/12/09 08:05:16;;;;;;;29.07;13.87;;;-0.90;99.90;;;;;;4992143;28;20042;-36
2021/12/09 08:07:42;;;;;;;29.77;13.97;;;-0.90;99.90;;;;;;4977928;28;20494;-36
2021/12/09 08:10:11;;;;;;;26.67;13.07;;;-0.90;99.90;;;;;;4993000;28;20396;-37
2021/12/09 08:12:37;;;;;;;23.47;12.77;;;-0.90;99.90;;;;;;4994561;28;20512;-37
2021/12/09 08:15:05;;;;;;;25.80;13.87;;;-0.90;99.90;;;;;;4999880;28;20045;-35
2021/12/09 08:20:05;;;;;;;23.77;13.53;;;-0.90;99.90;;;;;;4994626;28;20042;-37
2021/12/09 08:22:32;;;;;;;22.57;13.73;;;-0.90;99.90;;;;;;4991277;28;20050;-36
2021/12/09 08:24:59;;;;;;;24.57;13.53;;;-0.80;99.90;;;;;;5006632;28;20043;-36
2021/12/09 08:27:26;;;;;;;29.80;14.03;;;-0.90;99.90;;;;;;4978746;28;20072;-36
2021/12/09 08:29:51;;;;;;;30.63;15.00;;;-0.90;99.90;;;;;;4996159;28;20053;-37
2021/12/09 08:32:17;;;;;;;25.10;14.17;;;-0.80;99.90;;;;;;4993908;28;20042;-35
2021/12/09 08:34:43;;;;;;;26.03;14.70;;;-0.80;99.90;;;;;;4993269;28;20217;-36
2021/12/09 08:37:09;;;;;;;28.77;15.73;;;-0.80;99.90;;;;;;4979299;28;20537;-35
2021/12/09 08:39:35;;;;;;;31.23;18.07;;;-0.80;99.90;;;;;;4991992;28;20138;-37
2021/12/09 08:42:01;;;;;;;29.23;16.53;;;-0.70;99.90;;;;;;5000652;28;20049;-35
2021/12/09 08:44:27;;;;;;;29.07;15.33;;;-0.70;99.90;;;;;;4992721;28;20522;-36
2021/12/09 08:46:52;;;;;;;27.30;15.53;;;-0.70;99.90;;;;;;4984926;28;20124;-37
2021/12/09 08:49:18;;;;;;;26.00;16.03;;;-0.60;99.90;;;;;;4992323;28;20096;-36
2021/12/09 08:51:44;;;;;;;33.80;15.77;;;-0.60;99.90;;;;;;4993955;28;20050;-38
2021/12/09 08:54:10;;;;;;;31.77;15.43;;;-0.60;99.90;;;;;;4993817;28;20136;-36
2021/12/09 08:56:37;;;;;;;31.70;17.30;;;-0.50;99.90;;;;;;4982231;28;20609;-34
2021/12/09 08:59:06;;;;;;;31.17;17.27;;;-0.50;99.90;;;;;;4993514;28;20034;-37
2021/12/09 09:01:33;;;;;;;33.60;16.90;;;-0.40;99.90;;;;;;5018145;28;20529;-36
2021/12/09 09:04:00;;;;;;;30.47;16.73;;;-0.40;99.90;;;;;;4996790;28;20053;-34
2021/12/09 09:06:26;;;;;;;37.50;17.13;;;-0.40;99.90;;;;;;4978043;28;20587;-35
2021/12/09 09:08:57;;;;;;;32.53;16.17;;;-0.20;99.90;;;;;;4989997;28;20492;-36
2021/12/09 09:11:22;;;;;;;32.75;17.20;;;-0.30;99.90;;;;;;4992608;28;20468;-36
2021/12/09 09:13:48;;;;;;;32.43;16.30;;;-0.30;99.90;;;;;;5030238;28;20049;-37
2021/12/09 09:16:15;;;;;;;33.07;17.70;;;-0.20;99.90;;;;;;4984566;28;20067;-37
2021/12/09 09:18:40;;;;;;;31.43;17.50;;;-0.20;99.90;;;;;;5019140;28;20049;-37
2021/12/09 09:21:06;;;;;;;34.20;18.27;;;-0.20;99.90;;;;;;4983802;28;20050;-36
2021/12/09 09:23:33;;;;;;;37.33;18.00;;;-0.10;99.90;;;;;;4986227;28;20413;-36
2021/12/09 09:25:58;;;;;;;41.57;18.30;;;-0.10;99.90;;;;;;4988853;28;20093;-37
2021/12/09 09:28:24;;;;;;;31.17;17.17;;;0.00;99.90;;;;;;4975948;28;20513;-35
2021/12/09 09:30:56;;;;;;;40.03;17.77;;;0.10;99.90;;;;;;4986505;28;20147;-35
2021/12/09 09:33:27;;;;;;;32.63;18.17;;;0.10;99.90;;;;;;4986932;28;20049;-37
2021/12/09 09:35:53;;;;;;;39.10;16.77;;;0.20;99.90;;;;;;4988606;28;20055;-35
2021/12/09 09:38:20;;;;;;;41.67;18.53;;;0.30;99.90;;;;;;4975591;28;20296;-36
2021/12/09 09:40:51;;;;;;;36.43;17.80;;;0.30;99.90;;;;;;4986834;28;20122;-34
2021/12/09 09:43:42;;;;;;;32.53;17.55;;;0.40;99.90;;;;;;4990013;28;20747;-36
2021/12/09 09:46:07;;;;;;;36.13;17.50;;;0.40;99.90;;;;;;4981721;28;20054;-37
2021/12/09 09:48:35;;;;;;;40.07;17.67;;;0.60;99.90;;;;;;4975415;28;20516;-37
2021/12/09 09:51:02;;;;;;;36.07;18.03;;;0.70;99.90;;;;;;4988454;28;20057;-36
2021/12/09 09:53:28;;;;;;;37.80;18.63;;;0.80;99.90;;;;;;4984768;28;20076;-36
2021/12/09 09:55:53;;;;;;;39.80;17.53;;;0.90;99.90;;;;;;4994954;28;20406;-37
2021/12/09 09:58:19;;;;;;;34.53;16.57;;;1.00;99.90;;;;;;4981469;28;20054;-35
2021/12/09 10:00:46;;;;;;;29.33;16.30;;;1.10;99.90;;;;;;4992649;28;20046;-37
2021/12/09 10:03:17;;;;;;;32.27;15.53;;;1.20;99.90;;;;;;4991881;28;20045;-37
2021/12/09 10:05:48;;;;;;;38.58;16.13;;;1.30;99.90;;;;;;4990468;28;20137;-33
2021/12/09 10:08:15;;;;;;;;;;;1.40;99.90;;;;;;4983832;28;20052;-36
2021/12/09 10:10:43;;;;;;;32.20;15.63;;;1.50;99.90;;;;;;4995267;28;19940;-36
2021/12/09 10:13:13;;;;;;;35.17;16.83;;;1.60;99.90;;;;;;5008368;28;20068;-36
2021/12/09 10:15:57;;;;;;;31.03;15.53;;;1.70;99.90;;;;;;5018674;28;21050;-35
2021/12/09 10:18:46;;;;;;;28.97;14.30;;;1.80;99.90;;;;;;5017574;28;20505;-36
2021/12/09 10:21:20;;;;;;;29.60;13.93;;;2.00;99.90;;;;;;5012085;28;20033;-37
2021/12/09 10:23:50;;;;;;;23.37;13.07;;;2.10;99.90;;;;;;5029941;28;20505;-36
2021/12/09 10:26:29;;;;;;;27.40;13.20;;;2.20;99.90;;;;;;5002164;28;20045;-36
2021/12/09 10:29:24;;;;;;;23.57;12.50;;;2.40;99.90;;;;;;4999975;28;20448;-36
2021/12/09 10:31:56;;;;;;;23.93;11.37;;;2.60;99.90;;;;;;5002182;28;20057;-38
2021/12/09 10:34:40;;;;;;;27.58;10.82;;;2.70;99.90;;;;;;5016738;28;20050;-38
2021/12/09 10:37:22;;;;;;;25.37;10.27;;;2.70;99.90;;;;;;4996657;28;20304;-37
2021/12/09 10:39:54;;;;;;;22.90;10.63;;;2.70;99.90;;;;;;5010782;28;20404;-37
2021/12/09 10:42:29;;;;;;;22.50;10.90;;;2.60;99.90;;;;;;5006754;28;20104;-37
2021/12/09 10:45:16;;;;;;;26.07;11.33;;;2.60;99.90;;;;;;5000937;28;20084;-37
2021/12/09 10:48:02;;;;;;;23.37;12.60;;;2.60;99.90;;;;;;4984533;28;20141;-37
2021/12/09 10:50:40;;;;;;;22.33;12.10;;;2.50;99.90;;;;;;4991653;28;20051;-37
2021/12/09 10:53:33;;;;;;;25.20;12.90;;;2.50;99.90;;;;;;4995678;28;20314;-35
2021/12/09 10:56:09;;;;;;;24.93;12.60;;;2.50;99.90;;;;;;5005484;28;20551;-37
2021/12/09 10:58:39;;;;;;;21.57;12.20;;;2.50;99.90;;;;;;4988107;28;20404;-36
2021/12/09 11:01:06;;;;;;;23.70;12.47;;;2.50;99.90;;;;;;4994561;28;20838;-37
2021/12/09 11:03:36;;;;;;;24.47;12.60;;;2.50;99.90;;;;;;4992582;28;20041;-36
2021/12/09 11:06:23;;;;;;;31.13;13.90;;;2.50;99.90;;;;;;4992211;28;20057;-37
2021/12/09 11:08:52;;;;;;;26.70;13.53;;;2.60;99.90;;;;;;4987341;28;20133;-37
2021/12/09 11:11:40;;;;;;;22.83;13.77;;;2.40;99.90;;;;;;4989416;28;20046;-37
2021/12/09 11:14:13;;;;;;;23.50;13.67;;;2.40;99.90;;;;;;4994574;28;20606;-37
2021/12/09 11:16:42;;;;;;;26.17;13.60;;;2.40;99.90;;;;;;4985215;28;20045;-36
2021/12/09 11:19:30;;;;;;;25.50;14.43;;;2.40;99.90;;;;;;4990056;28;20357;-37
2021/12/09 11:22:00;;;;;;;27.27;13.43;;;2.40;99.90;;;;;;4987940;28;20053;-37
2021/12/09 11:24:32;;;;;;;26.73;14.83;;;2.40;99.90;;;;;;5005934;28;20124;-36
2021/12/09 11:27:07;;;;;;;28.33;14.38;;;2.40;99.90;;;;;;4995912;28;20045;-36
2021/12/09 11:29:43;;;;;;;29.10;16.13;;;2.40;99.90;;;;;;5010214;28;20044;-36
2021/12/09 11:32:21;;;;;;;26.50;14.17;;;2.40;99.90;;;;;;5007914;28;20045;-35
2021/12/09 11:35:11;;;;;;;27.43;14.93;;;2.40;99.90;;;;;;5009910;28;20095;-36
2021/12/09 11:37:43;;;;;;;30.23;16.17;;;2.40;99.90;;;;;;4998411;28;20045;-36
2021/12/09 11:40:22;;;;;;;33.67;16.23;;;2.30;99.90;;;;;;5010581;28;20119;-37
2021/12/09 11:42:56;;;;;;;28.07;15.43;;;2.40;99.90;;;;;;5001767;28;20104;-37
2021/12/09 11:45:25;;;;;;;33.13;16.33;;;2.50;99.90;;;;;;4992468;28;20244;-37
2021/12/09 11:47:53;;;;;;;37.47;16.70;;;2.40;99.90;;;;;;4972828;28;20050;-37
2021/12/09 11:50:30;;;;;;;34.90;15.17;;;2.40;99.90;;;;;;4989690;28;20402;-37
2021/12/09 11:52:57;;;;;;;27.77;16.23;;;2.40;99.90;;;;;;4991241;28;20044;-37
2021/12/09 11:55:31;;;;;;;39.73;17.53;;;2.40;99.90;;;;;;4991374;28;20395;-37
2021/12/09 11:58:05;;;;;;;36.33;16.70;;;2.50;99.90;;;;;;4976032;28;20060;-36
2021/12/09 12:07:04;;;;;;;36.10;16.90;;;2.50;99.90;;;;;;4984108;28;20058;-36
2021/12/09 12:13:04;;;;;;;33.30;16.43;;;2.50;99.90;;;;;;4999903;28;20041;-37
2021/12/09 12:15:44;;;;;;;34.27;15.97;;;2.50;99.90;;;;;;5014060;28;20061;-37
2021/12/09 12:34:34;;;;;;;35.17;16.37;;;2.60;99.90;;;;;;4990443;28;20061;-37
2021/12/09 12:42:59;;;;;;;33.83;16.23;;;2.60;99.90;;;;;;4992325;28;20058;-36
2021/12/09 12:48:11;;;;;;;34.13;16.77;;;2.60;99.90;;;;;;4973534;28;20050;-37
2021/12/09 12:50:37;;;;;;;30.67;16.70;;;2.60;99.90;;;;;;4992156;28;20061;-36
2021/12/09 12:53:32;;;;;;;33.10;17.43;;;2.60;99.90;;;;;;4992654;28;20066;-36
2021/12/09 12:56:23;;;;;;;31.13;17.47;;;2.70;99.90;;;;;;4995827;28;20064;-37
2021/12/09 12:59:12;;;;;;;36.20;15.25;;;2.70;99.90;;;;;;4992195;28;20132;-36
2021/12/09 13:02:06;;;;;;;40.90;18.07;;;2.70;99.90;;;;;;5002283;28;20053;-37
2021/12/09 13:07:20;;;;;;;34.67;18.13;;;2.70;99.90;;;;;;5002605;28;20091;-37
2021/12/09 13:10:03;;;;;;;43.90;19.93;;;2.70;99.90;;;;;;5012304;28;20517;-37
2021/12/09 13:12:44;;;;;;;37.97;19.53;;;2.70;99.90;;;;;;5008859;28;20053;-37
2021/12/09 13:15:23;;;;;;;30.42;14.18;;;2.70;99.90;;;;;;4994186;28;20539;-36
2021/12/09 13:18:00;;;;;;;39.00;19.93;;;2.80;99.90;;;;;;4980570;28;20524;-37
2021/12/09 13:20:34;;;;;;;39.80;19.67;;;2.80;99.90;;;;;;4993600;28;20047;-36
2021/12/09 13:23:22;;;;;;;41.53;18.93;;;2.80;99.90;;;;;;4991970;28;20062;-36
2021/12/09 13:26:11;;;;;;;44.23;20.53;;;2.80;99.90;;;;;;4998478;28;20534;-37
2021/12/09 13:28:42;;;;;;;38.33;19.33;;;2.90;99.90;;;;;;4992153;28;20107;-36